sensor_id;sensor_type;location;lat;lon;timestamp;temperature;humidity
6930;DHT22;3504;52.616;13.238;2023-08-17T00:01:41;20.43;75.30
6930;DHT22;3504;52.616;13.238;2023-08-17T00:06:42;20.32;75.76
6930;DHT22;3504;52.616;13.238;2023-08-17T00:11:43;20.25;75.74
6930;DHT22;3504;52.616;13.238;2023-08-17T00:16:43;20.20;75.88
6930;DHT22;3504;52.616;13.238;2023-08-17T00:21:45;20.21;75.96
6930;DHT22;3504;52.616;13.238;2023-08-17T00:26:45;20.15;76.10
6930;DHT22;3504;52.616;13.238;2023-08-17T00:31:47;20.10;76.48
6930;DHT22;3504;52.616;13.238;2023-08-17T00:36:47;20.02;76.61
6930;DHT22;3504;52.616;13.238;2023-08-17T00:41:48;19.97;77.06
6930;DHT22;3504;52.616;13.238;2023-08-17T00:46:48;19.94;76.97
6930;DHT22;3504;52.616;13.238;2023-08-17T00:51:49;19.90;77.00
6930;DHT22;3504;52.616;13.238;2023-08-17T00:56:49;19.88;77.01
6930;DHT22;3504;52.616;13.238;2023-08-17T01:01:50;19.90;77.21
6930;DHT22;3504;52.616;13.238;2023-08-17T01:06:50;19.84;77.01
6930;DHT22;3504;52.616;13.238;2023-08-17T01:17:24;19.78;77.01
6930;DHT22;3504;52.616;13.238;2023-08-17T01:22:28;19.74;77.16
6930;DHT22;3504;52.616;13.238;2023-08-17T01:27:39;19.71;77.20
6930;DHT22;3504;52.616;13.238;2023-08-17T01:32:51;19.57;77.95
6930;DHT22;3504;52.616;13.238;2023-08-17T01:37:58;19.51;77.81
6930;DHT22;3504;52.616;13.238;2023-08-17T01:43:00;19.45;77.85
6930;DHT22;3504;52.616;13.238;2023-08-17T01:48:01;19.45;77.90
6930;DHT22;3504;52.616;13.238;2023-08-17T01:53:02;19.40;77.98
6930;DHT22;3504;52.616;13.238;2023-08-17T01:58:03;19.35;78.02
6930;DHT22;3504;52.616;13.238;2023-08-17T02:03:06;19.32;78.05
6930;DHT22;3504;52.616;13.238;2023-08-17T02:08:07;19.26;78.12
6930;DHT22;3504;52.616;13.238;2023-08-17T02:13:08;19.23;78.21
6930;DHT22;3504;52.616;13.238;2023-08-17T02:18:08;19.20;78.34
6930;DHT22;3504;52.616;13.238;2023-08-17T02:23:09;19.18;78.28
6930;DHT22;3504;52.616;13.238;2023-08-17T02:28:09;19.16;78.12
6930;DHT22;3504;52.616;13.238;2023-08-17T02:33:10;19.15;78.35
6930;DHT22;3504;52.616;13.238;2023-08-17T02:38:10;19.10;78.07
6930;DHT22;3504;52.616;13.238;2023-08-17T02:43:11;19.09;77.85
6930;DHT22;3504;52.616;13.238;2023-08-17T02:48:11;19.06;77.81
6930;DHT22;3504;52.616;13.238;2023-08-17T02:53:12;19.02;77.73
6930;DHT22;3504;52.616;13.238;2023-08-17T02:58:13;19.02;77.24
6930;DHT22;3504;52.616;13.238;2023-08-17T03:03:13;19.06;77.11
6930;DHT22;3504;52.616;13.238;2023-08-17T03:08:14;19.02;77.02
6930;DHT22;3504;52.616;13.238;2023-08-17T03:13:14;18.98;76.87
6930;DHT22;3504;52.616;13.238;2023-08-17T03:18:15;18.95;76.75
6930;DHT22;3504;52.616;13.238;2023-08-17T03:23:16;18.91;76.53
6930;DHT22;3504;52.616;13.238;2023-08-17T03:28:17;18.82;76.26
6930;DHT22;3504;52.616;13.238;2023-08-17T03:33:18;18.77;76.03
6930;DHT22;3504;52.616;13.238;2023-08-17T03:38:18;18.74;76.01
6930;DHT22;3504;52.616;13.238;2023-08-17T03:43:19;18.74;75.84
6930;DHT22;3504;52.616;13.238;2023-08-17T03:48:21;18.71;75.59
6930;DHT22;3504;52.616;13.238;2023-08-17T03:53:26;18.68;75.19
6930;DHT22;3504;52.616;13.238;2023-08-17T03:58:26;18.65;74.76
6930;DHT22;3504;52.616;13.238;2023-08-17T04:03:30;18.65;74.68
6930;DHT22;3504;52.616;13.238;2023-08-17T04:08:30;18.67;74.66
6930;DHT22;3504;52.616;13.238;2023-08-17T04:13:31;18.61;74.52
6930;DHT22;3504;52.616;13.238;2023-08-17T04:18:32;18.60;73.80
6930;DHT22;3504;52.616;13.238;2023-08-17T04:23:32;18.58;73.69
6930;DHT22;3504;52.616;13.238;2023-08-17T04:28:33;18.61;73.63
6930;DHT22;3504;52.616;13.238;2023-08-17T04:33:34;18.61;73.23
6930;DHT22;3504;52.616;13.238;2023-08-17T04:38:35;18.61;73.28
6930;DHT22;3504;52.616;13.238;2023-08-17T04:43:35;18.67;72.81
6930;DHT22;3504;52.616;13.238;2023-08-17T04:48:36;18.71;73.27
6930;DHT22;3504;52.616;13.238;2023-08-17T04:53:37;18.74;73.32
6930;DHT22;3504;52.616;13.238;2023-08-17T04:58:37;18.71;72.50
6930;DHT22;3504;52.616;13.238;2023-08-17T05:03:38;18.79;72.97
6930;DHT22;3504;52.616;13.238;2023-08-17T05:08:39;18.81;73.04
6930;DHT22;3504;52.616;13.238;2023-08-17T05:13:39;18.91;73.13
6930;DHT22;3504;52.616;13.238;2023-08-17T05:18:40;18.92;72.87
6930;DHT22;3504;52.616;13.238;2023-08-17T05:23:45;18.92;73.23
6930;DHT22;3504;52.616;13.238;2023-08-17T05:28:45;19.03;73.29
6930;DHT22;3504;52.616;13.238;2023-08-17T05:33:46;19.08;73.01
6930;DHT22;3504;52.616;13.238;2023-08-17T05:38:47;19.13;73.34
6930;DHT22;3504;52.616;13.238;2023-08-17T05:43:48;19.18;73.21
6930;DHT22;3504;52.616;13.238;2023-08-17T05:48:49;19.16;72.94
6930;DHT22;3504;52.616;13.238;2023-08-17T05:53:49;19.22;73.55
6930;DHT22;3504;52.616;13.238;2023-08-17T05:58:50;19.33;72.48
6930;DHT22;3504;52.616;13.238;2023-08-17T06:03:50;19.42;73.78
6930;DHT22;3504;52.616;13.238;2023-08-17T06:08:51;19.42;73.95
6930;DHT22;3504;52.616;13.238;2023-08-17T06:13:51;19.38;73.87
6930;DHT22;3504;52.616;13.238;2023-08-17T06:18:52;19.40;73.69
6930;DHT22;3504;52.616;13.238;2023-08-17T06:23:55;19.53;73.63
6930;DHT22;3504;52.616;13.238;2023-08-17T06:28:56;19.70;73.23
6930;DHT22;3504;52.616;13.238;2023-08-17T06:33:57;19.85;72.79
6930;DHT22;3504;52.616;13.238;2023-08-17T06:38:57;20.12;72.97
6930;DHT22;3504;52.616;13.238;2023-08-17T06:43:58;20.65;71.17
6930;DHT22;3504;52.616;13.238;2023-08-17T06:48:59;20.86;69.62
6930;DHT22;3504;52.616;13.238;2023-08-17T06:53:59;20.83;70.44
6930;DHT22;3504;52.616;13.238;2023-08-17T06:59:00;20.87;69.58
6930;DHT22;3504;52.616;13.238;2023-08-17T07:04:00;20.72;70.67
6930;DHT22;3504;52.616;13.238;2023-08-17T07:09:01;20.76;71.93
6930;DHT22;3504;52.616;13.238;2023-08-17T07:14:04;20.68;71.90
6930;DHT22;3504;52.616;13.238;2023-08-17T07:19:06;20.59;71.11
6930;DHT22;3504;52.616;13.238;2023-08-17T07:24:14;20.57;71.39
6930;DHT22;3504;52.616;13.238;2023-08-17T07:29:15;20.60;72.89
6930;DHT22;3504;52.616;13.238;2023-08-17T07:34:16;20.72;73.82
6930;DHT22;3504;52.616;13.238;2023-08-17T07:39:16;20.82;74.59
6930;DHT22;3504;52.616;13.238;2023-08-17T07:44:18;20.77;73.11
6930;DHT22;3504;52.616;13.238;2023-08-17T07:49:19;20.73;72.36
6930;DHT22;3504;52.616;13.238;2023-08-17T07:54:20;20.73;73.37
6930;DHT22;3504;52.616;13.238;2023-08-17T07:59:20;20.68;73.38
6930;DHT22;3504;52.616;13.238;2023-08-17T08:04:21;20.68;72.44
6930;DHT22;3504;52.616;13.238;2023-08-17T08:09:21;20.62;72.92
6930;DHT22;3504;52.616;13.238;2023-08-17T08:14:22;20.77;74.08
6930;DHT22;3504;52.616;13.238;2023-08-17T08:19:22;20.86;73.62
6930;DHT22;3504;52.616;13.238;2023-08-17T08:24:23;20.89;73.49
6930;DHT22;3504;52.616;13.238;2023-08-17T08:29:24;20.99;72.42
6930;DHT22;3504;52.616;13.238;2023-08-17T08:34:24;21.13;71.38
6930;DHT22;3504;52.616;13.238;2023-08-17T08:39:26;21.24;72.14
6930;DHT22;3504;52.616;13.238;2023-08-17T08:44:26;21.34;72.47
6930;DHT22;3504;52.616;13.238;2023-08-17T08:49:28;21.43;71.57
6930;DHT22;3504;52.616;13.238;2023-08-17T08:54:31;21.51;71.67
6930;DHT22;3504;52.616;13.238;2023-08-17T08:59:34;21.48;70.93
6930;DHT22;3504;52.616;13.238;2023-08-17T09:04:35;21.57;72.46
6930;DHT22;3504;52.616;13.238;2023-08-17T09:09:36;21.58;72.87
6930;DHT22;3504;52.616;13.238;2023-08-17T09:14:37;21.79;72.70
6930;DHT22;3504;52.616;13.238;2023-08-17T09:19:38;22.09;73.43
6930;DHT22;3504;52.616;13.238;2023-08-17T09:24:39;22.33;72.98
6930;DHT22;3504;52.616;13.238;2023-08-17T09:29:43;22.50;71.83
6930;DHT22;3504;52.616;13.238;2023-08-17T09:34:45;22.60;71.47
6930;DHT22;3504;52.616;13.238;2023-08-17T09:39:46;22.87;71.62
6930;DHT22;3504;52.616;13.238;2023-08-17T09:44:46;23.21;70.58
6930;DHT22;3504;52.616;13.238;2023-08-17T09:49:52;23.35;70.08
6930;DHT22;3504;52.616;13.238;2023-08-17T09:54:53;23.35;69.94
6930;DHT22;3504;52.616;13.238;2023-08-17T09:59:55;23.43;70.41
6930;DHT22;3504;52.616;13.238;2023-08-17T10:04:57;23.35;70.26
6930;DHT22;3504;52.616;13.238;2023-08-17T10:10:05;23.15;69.92
6930;DHT22;3504;52.616;13.238;2023-08-17T10:15:11;23.19;70.87
6930;DHT22;3504;52.616;13.238;2023-08-17T10:20:14;23.21;70.53
6930;DHT22;3504;52.616;13.238;2023-08-17T10:25:15;23.31;70.58
6930;DHT22;3504;52.616;13.238;2023-08-17T10:30:16;23.53;70.29
6930;DHT22;3504;52.616;13.238;2023-08-17T10:35:17;23.63;69.22
6930;DHT22;3504;52.616;13.238;2023-08-17T10:40:26;23.89;69.80
6930;DHT22;3504;52.616;13.238;2023-08-17T10:45:33;24.94;66.49
6930;DHT22;3504;52.616;13.238;2023-08-17T10:50:36;25.57;65.46
6930;DHT22;3504;52.616;13.238;2023-08-17T10:55:42;26.21;64.70
6930;DHT22;3504;52.616;13.238;2023-08-17T11:00:44;26.69;61.18
6930;DHT22;3504;52.616;13.238;2023-08-17T11:05:53;26.82;61.01
6930;DHT22;3504;52.616;13.238;2023-08-17T11:11:10;26.96;59.34
6930;DHT22;3504;52.616;13.238;2023-08-17T11:16:14;27.13;61.35
6930;DHT22;3504;52.616;13.238;2023-08-17T11:21:15;27.10;59.61
6930;DHT22;3504;52.616;13.238;2023-08-17T11:26:17;26.97;58.78
6930;DHT22;3504;52.616;13.238;2023-08-17T11:31:17;27.33;59.43
6930;DHT22;3504;52.616;13.238;2023-08-17T11:36:18;27.35;58.54
6930;DHT22;3504;52.616;13.238;2023-08-17T11:41:20;27.54;59.30
6930;DHT22;3504;52.616;13.238;2023-08-17T11:46:20;27.51;58.36
6930;DHT22;3504;52.616;13.238;2023-08-17T11:51:30;27.47;58.94
6930;DHT22;3504;52.616;13.238;2023-08-17T11:56:31;27.37;59.11
6930;DHT22;3504;52.616;13.238;2023-08-17T12:01:32;27.30;59.04
6930;DHT22;3504;52.616;13.238;2023-08-17T12:06:36;27.18;59.37
6930;DHT22;3504;52.616;13.238;2023-08-17T12:11:38;27.28;59.62
6930;DHT22;3504;52.616;13.238;2023-08-17T12:16:48;27.23;59.58
6930;DHT22;3504;52.616;13.238;2023-08-17T12:21:49;27.06;59.60
6930;DHT22;3504;52.616;13.238;2023-08-17T12:26:49;26.56;59.86
6930;DHT22;3504;52.616;13.238;2023-08-17T12:31:52;26.76;61.22
6930;DHT22;3504;52.616;13.238;2023-08-17T12:36:52;26.69;61.63
6930;DHT22;3504;52.616;13.238;2023-08-17T12:41:53;27.04;62.22
6930;DHT22;3504;52.616;13.238;2023-08-17T12:46:53;26.96;60.89
6930;DHT22;3504;52.616;13.238;2023-08-17T12:51:54;26.95;61.83
6930;DHT22;3504;52.616;13.238;2023-08-17T12:56:54;26.97;61.77
6930;DHT22;3504;52.616;13.238;2023-08-17T13:01:55;26.96;61.92
6930;DHT22;3504;52.616;13.238;2023-08-17T13:06:55;27.16;61.76
6930;DHT22;3504;52.616;13.238;2023-08-17T13:11:56;27.07;61.64
6930;DHT22;3504;52.616;13.238;2023-08-17T13:16:57;27.23;62.77
6930;DHT22;3504;52.616;13.238;2023-08-17T13:21:57;27.06;62.27
6930;DHT22;3504;52.616;13.238;2023-08-17T13:26:58;27.07;63.84
6930;DHT22;3504;52.616;13.238;2023-08-17T13:31:58;27.16;62.98
6930;DHT22;3504;52.616;13.238;2023-08-17T13:36:59;27.43;62.93
6930;DHT22;3504;52.616;13.238;2023-08-17T13:41:59;27.24;62.92
6930;DHT22;3504;52.616;13.238;2023-08-17T13:47:00;27.23;63.55
6930;DHT22;3504;52.616;13.238;2023-08-17T13:52:00;27.10;63.05
6930;DHT22;3504;52.616;13.238;2023-08-17T13:57:00;27.31;63.68
6930;DHT22;3504;52.616;13.238;2023-08-17T14:02:04;27.11;63.74
6930;DHT22;3504;52.616;13.238;2023-08-17T14:07:04;26.90;63.65
6930;DHT22;3504;52.616;13.238;2023-08-17T14:12:05;27.06;63.92
6930;DHT22;3504;52.616;13.238;2023-08-17T14:17:06;26.89;62.93
6930;DHT22;3504;52.616;13.238;2023-08-17T14:22:06;26.92;63.19
6930;DHT22;3504;52.616;13.238;2023-08-17T14:27:07;26.95;62.90
6930;DHT22;3504;52.616;13.238;2023-08-17T14:32:07;27.20;62.30
6930;DHT22;3504;52.616;13.238;2023-08-17T14:37:08;27.34;62.42
6930;DHT22;3504;52.616;13.238;2023-08-17T14:42:08;27.33;61.78
6930;DHT22;3504;52.616;13.238;2023-08-17T14:47:09;27.17;61.99
6930;DHT22;3504;52.616;13.238;2023-08-17T14:52:09;27.18;61.29
6930;DHT22;3504;52.616;13.238;2023-08-17T14:57:10;27.30;61.86
6930;DHT22;3504;52.616;13.238;2023-08-17T15:02:10;27.43;61.43
6930;DHT22;3504;52.616;13.238;2023-08-17T15:07:11;27.13;61.46
6930;DHT22;3504;52.616;13.238;2023-08-17T15:12:11;27.27;62.06
6930;DHT22;3504;52.616;13.238;2023-08-17T15:17:12;27.40;61.32
6930;DHT22;3504;52.616;13.238;2023-08-17T15:22:12;27.27;61.00
6930;DHT22;3504;52.616;13.238;2023-08-17T15:27:13;27.23;61.84
6930;DHT22;3504;52.616;13.238;2023-08-17T15:32:14;26.95;60.70
6930;DHT22;3504;52.616;13.238;2023-08-17T15:37:14;26.96;61.96
6930;DHT22;3504;52.616;13.238;2023-08-17T15:42:15;27.04;62.01
6930;DHT22;3504;52.616;13.238;2023-08-17T15:47:15;27.02;61.56
6930;DHT22;3504;52.616;13.238;2023-08-17T15:52:16;26.97;62.13
6930;DHT22;3504;52.616;13.238;2023-08-17T15:57:16;26.90;61.97
6930;DHT22;3504;52.616;13.238;2023-08-17T16:02:17;26.83;61.77
6930;DHT22;3504;52.616;13.238;2023-08-17T16:07:17;26.80;62.69
6930;DHT22;3504;52.616;13.238;2023-08-17T16:12:18;26.78;62.67
6930;DHT22;3504;52.616;13.238;2023-08-17T16:17:18;26.70;63.22
6930;DHT22;3504;52.616;13.238;2023-08-17T16:22:19;26.57;62.93
6930;DHT22;3504;52.616;13.238;2023-08-17T16:27:19;26.46;63.24
6930;DHT22;3504;52.616;13.238;2023-08-17T16:32:20;26.35;63.29
6930;DHT22;3504;52.616;13.238;2023-08-17T16:37:20;26.22;64.28
6930;DHT22;3504;52.616;13.238;2023-08-17T16:42:21;26.15;64.25
6930;DHT22;3504;52.616;13.238;2023-08-17T16:47:21;26.04;64.31
6930;DHT22;3504;52.616;13.238;2023-08-17T16:52:26;26.00;64.70
6930;DHT22;3504;52.616;13.238;2023-08-17T16:57:26;25.95;65.27
6930;DHT22;3504;52.616;13.238;2023-08-17T17:02:27;25.94;65.50
6930;DHT22;3504;52.616;13.238;2023-08-17T17:07:27;25.87;65.83
6930;DHT22;3504;52.616;13.238;2023-08-17T17:12:28;25.85;66.03
6930;DHT22;3504;52.616;13.238;2023-08-17T17:17:28;25.75;66.53
6930;DHT22;3504;52.616;13.238;2023-08-17T17:22:29;25.66;66.16
6930;DHT22;3504;52.616;13.238;2023-08-17T17:27:30;25.60;66.69
6930;DHT22;3504;52.616;13.238;2023-08-17T17:32:30;25.57;66.96
6930;DHT22;3504;52.616;13.238;2023-08-17T17:37:31;25.49;66.49
6930;DHT22;3504;52.616;13.238;2023-08-17T17:42:31;25.40;66.47
6930;DHT22;3504;52.616;13.238;2023-08-17T17:47:32;25.34;66.59
6930;DHT22;3504;52.616;13.238;2023-08-17T17:52:35;25.29;66.71
6930;DHT22;3504;52.616;13.238;2023-08-17T17:57:35;25.22;66.69
6930;DHT22;3504;52.616;13.238;2023-08-17T18:02:37;25.18;66.28
6930;DHT22;3504;52.616;13.238;2023-08-17T18:07:40;25.12;66.23
6930;DHT22;3504;52.616;13.238;2023-08-17T18:12:41;25.03;66.18
6930;DHT22;3504;52.616;13.238;2023-08-17T18:17:41;24.89;66.14
6930;DHT22;3504;52.616;13.238;2023-08-17T18:22:42;24.82;66.72
6930;DHT22;3504;52.616;13.238;2023-08-17T18:27:42;24.67;66.43
6930;DHT22;3504;52.616;13.238;2023-08-17T18:32:43;24.57;66.74
6930;DHT22;3504;52.616;13.238;2023-08-17T18:37:44;24.45;67.07
6930;DHT22;3504;52.616;13.238;2023-08-17T18:42:48;24.33;66.96
6930;DHT22;3504;52.616;13.238;2023-08-17T18:47:49;24.21;66.84
6930;DHT22;3504;52.616;13.238;2023-08-17T18:52:49;24.13;67.17
6930;DHT22;3504;52.616;13.238;2023-08-17T18:57:50;24.06;67.34
6930;DHT22;3504;52.616;13.238;2023-08-17T19:02:50;23.97;67.48
6930;DHT22;3504;52.616;13.238;2023-08-17T19:07:50;23.83;67.64
6930;DHT22;3504;52.616;13.238;2023-08-17T19:12:54;23.82;67.82
6930;DHT22;3504;52.616;13.238;2023-08-17T19:17:54;23.69;68.05
6930;DHT22;3504;52.616;13.238;2023-08-17T19:22:55;23.58;68.08
6930;DHT22;3504;52.616;13.238;2023-08-17T19:27:55;23.46;68.04
6930;DHT22;3504;52.616;13.238;2023-08-17T19:32:57;23.34;68.13
6930;DHT22;3504;52.616;13.238;2023-08-17T19:37:58;23.29;68.61
6930;DHT22;3504;52.616;13.238;2023-08-17T19:42:59;23.21;68.23
6930;DHT22;3504;52.616;13.238;2023-08-17T19:47:59;23.18;68.57
6930;DHT22;3504;52.616;13.238;2023-08-17T19:53:00;23.08;68.86
6930;DHT22;3504;52.616;13.238;2023-08-17T19:58:00;23.01;68.91
6930;DHT22;3504;52.616;13.238;2023-08-17T20:03:01;22.92;69.22
6930;DHT22;3504;52.616;13.238;2023-08-17T20:08:01;22.86;69.60
6930;DHT22;3504;52.616;13.238;2023-08-17T20:13:02;22.78;69.63
6930;DHT22;3504;52.616;13.238;2023-08-17T20:18:03;22.71;69.81
6930;DHT22;3504;52.616;13.238;2023-08-17T20:23:04;22.68;69.98
6930;DHT22;3504;52.616;13.238;2023-08-17T20:28:04;22.61;70.37
6930;DHT22;3504;52.616;13.238;2023-08-17T20:33:05;22.57;70.34
6930;DHT22;3504;52.616;13.238;2023-08-17T20:38:06;22.49;70.60
6930;DHT22;3504;52.616;13.238;2023-08-17T20:43:07;22.43;70.89
6930;DHT22;3504;52.616;13.238;2023-08-17T20:48:08;22.39;71.12
6930;DHT22;3504;52.616;13.238;2023-08-17T20:53:11;22.30;71.10
6930;DHT22;3504;52.616;13.238;2023-08-17T20:58:12;22.29;71.12
6930;DHT22;3504;52.616;13.238;2023-08-17T21:03:13;22.27;71.17
6930;DHT22;3504;52.616;13.238;2023-08-17T21:08:13;22.23;71.41
6930;DHT22;3504;52.616;13.238;2023-08-17T21:13:14;22.19;71.58
6930;DHT22;3504;52.616;13.238;2023-08-17T21:18:14;22.15;71.80
6930;DHT22;3504;52.616;13.238;2023-08-17T21:23:14;22.10;72.00
6930;DHT22;3504;52.616;13.238;2023-08-17T21:28:15;22.08;72.02
6930;DHT22;3504;52.616;13.238;2023-08-17T21:33:15;22.04;72.15
6930;DHT22;3504;52.616;13.238;2023-08-17T21:38:16;21.95;72.57
6930;DHT22;3504;52.616;13.238;2023-08-17T21:43:16;21.92;73.12
6930;DHT22;3504;52.616;13.238;2023-08-17T21:48:17;21.82;73.23
6930;DHT22;3504;52.616;13.238;2023-08-17T21:53:18;21.83;73.39
6930;DHT22;3504;52.616;13.238;2023-08-17T21:58:19;21.83;73.21
6930;DHT22;3504;52.616;13.238;2023-08-17T22:03:19;21.83;73.68
6930;DHT22;3504;52.616;13.238;2023-08-17T22:08:20;21.78;73.80
6930;DHT22;3504;52.616;13.238;2023-08-17T22:13:20;21.75;74.40
6930;DHT22;3504;52.616;13.238;2023-08-17T22:18:21;21.69;74.10
6930;DHT22;3504;52.616;13.238;2023-08-17T22:23:21;21.65;74.25
6930;DHT22;3504;52.616;13.238;2023-08-17T22:28:22;21.64;74.97
6930;DHT22;3504;52.616;13.238;2023-08-17T22:33:23;21.59;74.61
6930;DHT22;3504;52.616;13.238;2023-08-17T22:38:24;21.50;75.63
6930;DHT22;3504;52.616;13.238;2023-08-17T22:43:25;21.38;75.84
6930;DHT22;3504;52.616;13.238;2023-08-17T22:48:25;21.31;75.76
6930;DHT22;3504;52.616;13.238;2023-08-17T22:53:26;21.35;75.55
6930;DHT22;3504;52.616;13.238;2023-08-17T22:58:28;21.28;75.34
6930;DHT22;3504;52.616;13.238;2023-08-17T23:03:28;21.24;75.64
6930;DHT22;3504;52.616;13.238;2023-08-17T23:08:28;21.24;75.50
6930;DHT22;3504;52.616;13.238;2023-08-17T23:13:29;21.18;75.76
6930;DHT22;3504;52.616;13.238;2023-08-17T23:18:29;21.20;75.64
6930;DHT22;3504;52.616;13.238;2023-08-17T23:23:30;21.23;75.61
6930;DHT22;3504;52.616;13.238;2023-08-17T23:28:30;21.20;75.69
6930;DHT22;3504;52.616;13.238;2023-08-17T23:33:31;21.13;75.74
6930;DHT22;3504;52.616;13.238;2023-08-17T23:38:31;21.08;75.88
6930;DHT22;3504;52.616;13.238;2023-08-17T23:43:35;21.08;76.47
6930;DHT22;3504;52.616;13.238;2023-08-17T23:48:35;21.08;76.61
6930;DHT22;3504;52.616;13.238;2023-08-17T23:53:36;21.15;76.67
6930;DHT22;3504;52.616;13.238;2023-08-17T23:58:36;21.15;77.41
